• Join FlightAware (Why Join?)
  • Login
  • US Flag 
05:15PM EDT


 

Airport Tracker/Info


-or-


 

Live Flight TrackerFlight Track Log ✈ N960DL ✈ 23-May-2013 ✈ KATL - KMSY

Flight Track Log - Related Links

Times and Time Zones

All times are in EDT time to prevent confusion due to time zone crossing. See the N960DL flight status page for this flight to view local times or setup timezone preferences in your user account.

Time Position Orientation Groundspeed Altitude Reporting Facility
EDT Latitude Longitude Course Direction KTS MPH feet Rate Location/Type
12:35PM 33.6500 -84.4500 234° Southwest 152 175 2,200  Level Atlanta TRACON
12:36PM 33.6500 -84.5167 270° West 224 258 3,900 2,460 Climbing Atlanta TRACON
12:37PM 33.6667 -84.6000 284° West 255 293 7,400 2,280 Climbing Atlanta TRACON
12:38PM 33.8001 -84.3818 270° West  Level FlightAware Approximate
12:39PM 33.8000 -84.5254 270° West  Level FlightAware Approximate
12:39PM 33.6833 -84.7953 276° West 280 322 11,300  Level Atlanta Center
12:40PM 33.7520 -84.6511 234° Southwest  Level FlightAware Approximate
12:40PM 33.6369 -84.8872 239° Southwest 318 366 13,200  Level Atlanta Center
12:41PM 33.5797 -84.9989 238° Southwest 377 434 16,300 2,700 Climbing Atlanta Center
12:42PM 33.5244 -85.1103 239° Southwest 393 452 18,700 2,100 Climbing Atlanta Center
12:43PM 33.4714 -85.2267 241° Southwest 400 460 20,500 1,740 Climbing Atlanta Center
12:45PM 33.4183 -85.5022 257° West 426 490 24,000 1,680 Climbing Atlanta Center
12:46PM 33.3850 -85.6533 255° West 433 498 25,700 1,920 Climbing Atlanta Center
12:47PM 33.3147 -85.7664 233° Southwest 418 481 27,900 1,980 Climbing Atlanta Center
12:48PM 33.2364 -85.8419 219° Southwest 407 468 29,700 1,500 Climbing Atlanta Center
12:49PM 33.1472 -85.9319 220° Southwest 413 475 30,900 1,380 Climbing Atlanta Center
12:50PM 33.0497 -86.0314 221° Southwest 426 490 32,500 1,140 Climbing Atlanta Center
12:51PM 32.9625 -86.1233 222° Southwest 426 490 33,200 720 Climbing Atlanta Center
12:52PM 32.8756 -86.2153 222° Southwest 426 490 34,000 660 Climbing Atlanta Center
12:53PM 32.7861 -86.3044 220° Southwest 426 490 34,600 780 Climbing Atlanta Center
12:54PM 32.6967 -86.3961 221° Southwest 421 484 35,600 660 Climbing Atlanta Center
12:55PM 32.5953 -86.4672 211° Southwest 421 484 36,000 180 Climbing Atlanta Center
12:56PM 32.5147 -86.5217 210° Southwest 421 484 36,000  Level Atlanta Center
12:57PM 32.4047 -86.6000 211° Southwest 421 484 36,000  Level Atlanta Center
12:58PM 32.3050 -86.6731 212° Southwest 432 497 36,000  Level Atlanta Center
12:59PM 32.1844 -86.7481 208° Southwest 448 516 36,000  Level Atlanta Center
01:00PM 32.0825 -86.8211 211° Southwest 448 516 36,000  Level Atlanta Center
01:01PM 31.9808 -86.8939 211° Southwest 443 510 36,000  Level Atlanta Center
01:02PM 31.8789 -86.9639 210° Southwest 432 497 36,000  Level Atlanta Center
01:03PM 31.7772 -87.0339 210° Southwest 432 497 36,000  Level Atlanta Center
01:04PM 31.6964 -87.0897 210° Southwest 432 497 36,000  Level Atlanta Center
01:05PM 31.5903 -87.2006 222° Southwest 418 481 36,000  Level Houston Center
01:06PM 31.5003 -87.3256 230° Southwest 419 482 36,000  Level Houston Center
01:08PM 31.4250 -87.4289 230° Southwest 418 481 36,000  Level Houston Center
01:09PM 31.3483 -87.5322 229° Southwest 422 486 36,000  Level Houston Center
01:10PM 31.2719 -87.6361 229° Southwest 421 484 36,000  Level Houston Center
01:11PM 31.1986 -87.7344 229° Southwest 420 483 36,000  Level Houston Center
01:12PM 31.1069 -87.8589 229° Southwest 422 486 36,000 -360 Level Houston Center
01:13PM 31.0283 -87.9619 228° Southwest 426 490 35,300 -900 Descending Houston Center
01:14PM 30.9494 -88.0639 228° Southwest 426 490 34,200 -1,020 Descending Houston Center
01:15PM 30.8667 -88.1683 227° Southwest 437 503 33,200 -1,020 Descending Houston Center
01:16PM 30.7894 -88.2744 230° Southwest 431 496 32,100 -1,320 Descending Houston Center
01:17PM 30.7017 -88.4058 232° Southwest 432 497 30,500 -1,260 Descending Houston Center
01:18PM 30.6542 -88.5192 244° Southwest 427 491 29,500 -780 Descending Houston Center
01:19PM 30.5994 -88.6433 243° Southwest 431 496 28,900 -600 Descending Houston Center
01:20PM 30.5456 -88.7650 243° Southwest 426 490 28,300 -1,260 Descending Houston Center
01:21PM 30.4586 -88.8919 232° Southwest 423 487 26,300 -2,100 Descending Houston Center
01:22PM 30.3981 -88.9831 232° Southwest 415 478 24,000 -2,460 Descending Houston Center
01:23PM 30.3536 -89.1256 250° West 394 453 21,300 -2,400 Descending Houston Center
01:24PM 30.3192 -89.2375 250° West 378 435 19,100 -2,160 Descending Houston Center
01:25PM 30.2853 -89.3467 250° West 364 419 16,900 -2,280 Descending Houston Center
01:26PM 30.2544 -89.4508 251° West 349 402 14,700 -2,580 Descending Houston Center
01:27PM 30.2167 -89.5633 249° West 349 402 11,800 -1,920 Descending Houston Center
01:28PM 30.1844 -89.6611 249° West 349 402 10,800 -900 Descending Houston Center
01:29PM 30.1522 -89.7539 248° West 309 356 10,100 -1,140 Descending Houston Center
01:30PM 30.1222 -89.8539 251° West 278 320 8,400 -1,560 Descending Houston Center
01:31PM 30.1000 -89.9389 253° West 274 315 6,800 -1,500 Descending Houston Center
01:32PM 30.0811 -90.0022 251° West 272 313 5,700 -1,440 Descending Houston Center
01:32PM 30.0778 -90.0314 262° West 273 314 5,100 -1,500 Descending Houston Center
01:33PM 30.0817 -90.0864 275° West 261 300 4,200 -1,200 Descending Houston Center
01:33PM 30.0803 -90.1156 267° West 265 305 3,900 -720 Descending Houston Center
01:34PM 30.0739 -90.1756 263° West 266 306 3,500 -900 Descending Houston Center
01:34PM 30.0750 -90.2014 273° West 266 306 3,000 -1,200 Descending Houston Center